createdAt,value
2017-07-12T00:01:48.312Z,1.80
2017-07-12T00:04:17.374Z,1.73
2017-07-12T00:06:46.820Z,1.80
2017-07-12T00:09:16.101Z,1.90
2017-07-12T00:11:45.427Z,2.37
2017-07-12T00:14:14.371Z,2.10
2017-07-12T00:16:43.696Z,2.07
2017-07-12T00:19:13.197Z,2.50
2017-07-12T00:21:42.636Z,2.30
2017-07-12T00:24:13.212Z,2.40
2017-07-12T00:26:42.499Z,2.00
2017-07-12T00:29:12.679Z,2.00
2017-07-12T00:31:42.200Z,1.87
2017-07-12T00:34:11.618Z,2.50
2017-07-12T00:36:41.725Z,2.47
2017-07-12T00:39:11.019Z,2.20
2017-07-12T00:41:40.449Z,2.90
2017-07-12T00:44:10.433Z,2.60
2017-07-12T00:46:39.570Z,2.60
2017-07-12T00:49:09.047Z,2.27
2017-07-12T00:51:38.323Z,2.13
2017-07-12T00:54:07.566Z,2.60
2017-07-12T00:56:37.807Z,2.00
2017-07-12T00:59:07.009Z,1.90
2017-07-12T01:01:36.564Z,2.47
2017-07-12T01:04:05.941Z,2.37
2017-07-12T01:06:35.431Z,2.40
2017-07-12T01:09:04.927Z,4.23
2017-07-12T01:11:34.832Z,2.50
2017-07-12T01:14:04.063Z,3.30
2017-07-12T01:16:33.521Z,3.80
2017-07-12T01:19:03.086Z,3.97
2017-07-12T01:21:32.331Z,3.10
2017-07-12T01:24:02.037Z,3.43
2017-07-12T01:26:31.778Z,3.13
2017-07-12T01:29:01.050Z,2.50
2017-07-12T01:31:30.319Z,2.40
2017-07-12T01:33:59.777Z,2.53
2017-07-12T01:36:29.041Z,2.20
2017-07-12T01:38:59.082Z,3.40
2017-07-12T01:41:28.550Z,2.17
2017-07-12T01:43:57.824Z,2.60
2017-07-12T01:46:27.181Z,2.77
2017-07-12T01:48:57.169Z,2.13
2017-07-12T01:51:26.447Z,2.60
2017-07-12T01:53:55.536Z,2.27
2017-07-12T01:56:25.016Z,2.03
2017-07-12T01:58:54.117Z,2.20
2017-07-12T02:01:23.707Z,2.37
2017-07-12T02:03:52.434Z,2.83
2017-07-12T02:06:21.096Z,2.40
2017-07-12T02:08:49.791Z,2.27
2017-07-12T02:11:18.592Z,2.40
2017-07-12T02:13:47.852Z,2.60
2017-07-12T02:16:17.186Z,1.80
2017-07-12T02:18:46.645Z,2.90
2017-07-12T02:21:16.040Z,2.30
2017-07-12T02:23:45.604Z,2.20
2017-07-12T02:26:14.364Z,2.97
2017-07-12T02:28:43.810Z,2.40
2017-07-12T02:31:13.137Z,2.60
2017-07-12T02:33:43.143Z,2.47
2017-07-12T02:36:12.457Z,2.43
2017-07-12T02:38:41.937Z,2.40
2017-07-12T02:41:11.170Z,3.00
2017-07-12T02:43:40.503Z,3.30
2017-07-12T02:46:09.333Z,2.90
2017-07-12T02:48:38.391Z,3.00
2017-07-12T02:51:07.082Z,2.43
2017-07-12T02:53:36.637Z,3.87
2017-07-12T02:56:05.842Z,2.70
2017-07-12T02:58:35.023Z,2.47
2017-07-12T03:01:05.338Z,3.13
2017-07-12T03:03:34.398Z,2.93
2017-07-12T03:06:04.002Z,2.53
2017-07-12T03:08:33.453Z,2.97
2017-07-12T03:11:02.578Z,3.13
2017-07-12T03:13:31.840Z,2.77
2017-07-12T03:16:01.282Z,2.97
2017-07-12T03:18:30.648Z,3.07
2017-07-12T03:21:00.001Z,2.97
2017-07-12T03:23:29.075Z,3.17
2017-07-12T03:25:58.392Z,2.93
2017-07-12T03:28:27.886Z,3.40
2017-07-12T03:30:58.741Z,3.00
2017-07-12T03:33:28.203Z,3.70
2017-07-12T03:35:57.678Z,2.93
2017-07-12T03:38:27.063Z,3.37
2017-07-12T03:40:55.995Z,3.10
2017-07-12T03:43:24.671Z,3.13
2017-07-12T03:45:53.419Z,2.77
2017-07-12T03:48:23.214Z,2.83
2017-07-12T03:50:52.927Z,2.80
2017-07-12T03:53:22.528Z,3.00
2017-07-12T03:55:52.177Z,2.90
2017-07-12T03:58:21.771Z,3.03
2017-07-12T04:00:51.151Z,2.60
2017-07-12T04:03:20.618Z,3.00
2017-07-12T04:05:49.872Z,3.20
2017-07-12T04:08:19.090Z,3.33
2017-07-12T04:10:48.449Z,2.90
2017-07-12T04:13:17.766Z,3.00
2017-07-12T04:15:47.101Z,2.80
2017-07-12T04:18:16.294Z,2.97
2017-07-12T04:20:45.568Z,3.17
2017-07-12T04:23:14.581Z,3.00
2017-07-12T04:25:43.851Z,3.03
2017-07-12T04:28:12.957Z,3.23
2017-07-12T04:30:42.855Z,3.37
2017-07-12T04:33:12.578Z,3.23
2017-07-12T04:35:41.809Z,3.40
2017-07-12T04:38:10.944Z,3.30
2017-07-12T04:40:40.398Z,3.40
2017-07-12T04:43:09.716Z,3.30
2017-07-12T04:45:38.802Z,2.97
2017-07-12T04:48:08.425Z,3.20
2017-07-12T04:50:37.519Z,3.47
2017-07-12T04:53:06.723Z,3.60
2017-07-12T04:55:36.137Z,3.13
2017-07-12T04:58:05.537Z,3.40
2017-07-12T05:00:34.608Z,2.83
2017-07-12T05:03:03.946Z,2.60
2017-07-12T05:05:33.005Z,3.30
2017-07-12T05:08:02.436Z,2.60
2017-07-12T05:10:31.608Z,2.77
2017-07-12T05:13:01.690Z,2.83
2017-07-12T05:15:31.169Z,2.97
2017-07-12T05:18:00.705Z,2.87
2017-07-12T05:20:30.141Z,2.70
2017-07-12T05:22:59.413Z,2.80
2017-07-12T05:25:29.511Z,3.00
2017-07-12T05:28:00.084Z,2.70
2017-07-12T05:30:30.148Z,2.83
2017-07-12T05:32:59.344Z,3.93
2017-07-12T05:35:30.036Z,2.87
2017-07-12T05:38:01.107Z,3.30
2017-07-12T05:40:30.315Z,2.97
2017-07-12T05:42:59.583Z,2.77
2017-07-12T05:45:28.921Z,2.60
2017-07-12T05:47:59.197Z,2.80
2017-07-12T05:50:28.497Z,2.93
2017-07-12T05:52:57.899Z,3.00
2017-07-12T05:55:27.289Z,2.90
2017-07-12T05:57:56.801Z,2.70
2017-07-12T06:00:26.160Z,3.10
2017-07-12T06:02:55.337Z,3.40
2017-07-12T06:05:24.587Z,2.87
2017-07-12T06:07:53.943Z,2.60
2017-07-12T06:10:22.900Z,2.70
2017-07-12T06:12:52.159Z,3.00
2017-07-12T06:15:21.093Z,2.60
2017-07-12T06:17:50.623Z,3.40
2017-07-12T06:20:20.205Z,2.80
2017-07-12T06:22:49.502Z,3.20
2017-07-12T06:25:19.089Z,2.90
2017-07-12T06:27:48.211Z,2.87
2017-07-12T06:30:17.650Z,3.33
2017-07-12T06:32:47.084Z,3.00
2017-07-12T06:35:16.563Z,2.53
2017-07-12T06:37:47.170Z,3.10
2017-07-12T06:40:16.657Z,3.20
2017-07-12T06:42:53.699Z,2.97
2017-07-12T06:45:22.861Z,3.17
2017-07-12T06:47:52.240Z,3.67
2017-07-12T06:50:21.566Z,3.03
2017-07-12T06:52:50.769Z,3.40
2017-07-12T06:55:20.113Z,3.10
2017-07-12T06:57:51.087Z,2.77
2017-07-12T07:00:20.509Z,3.37
2017-07-12T07:02:49.817Z,2.80
2017-07-12T07:05:19.123Z,3.30
2017-07-12T07:07:48.302Z,2.93
2017-07-12T07:10:17.786Z,2.93
2017-07-12T07:12:46.896Z,2.90
2017-07-12T07:15:16.051Z,3.10
2017-07-12T07:17:46.117Z,3.60
2017-07-12T07:20:15.415Z,3.00
2017-07-12T07:35:38.876Z,3.63
2017-07-12T07:38:09.349Z,3.30
2017-07-12T07:40:38.853Z,2.90
2017-07-12T07:43:08.871Z,2.97
2017-07-12T07:45:38.360Z,3.60
2017-07-12T07:48:07.759Z,3.33
2017-07-12T07:50:37.095Z,3.13
2017-07-12T07:53:06.823Z,2.73
2017-07-12T07:55:36.188Z,2.83
2017-07-12T07:58:05.633Z,3.23
2017-07-12T08:00:35.238Z,3.33
2017-07-12T08:03:04.695Z,3.33
2017-07-12T08:05:34.310Z,3.00
2017-07-12T08:08:03.643Z,3.03
2017-07-12T08:10:33.034Z,2.60
2017-07-12T08:13:02.599Z,3.47
2017-07-12T08:15:32.054Z,2.87
2017-07-12T08:18:01.546Z,3.17
2017-07-12T08:20:30.866Z,3.30
2017-07-12T08:23:00.051Z,3.50
2017-07-12T08:25:29.442Z,2.93
2017-07-12T08:27:59.459Z,3.57
2017-07-12T08:30:28.918Z,2.83
2017-07-12T08:32:58.162Z,2.90
2017-07-12T08:35:28.557Z,2.90
2017-07-12T08:37:57.454Z,3.13
2017-07-12T08:40:27.190Z,3.10
2017-07-12T08:42:56.439Z,3.13
2017-07-12T08:45:25.881Z,3.43
2017-07-12T08:47:55.236Z,3.17
2017-07-12T08:50:24.594Z,2.70
2017-07-12T08:52:54.205Z,3.20
2017-07-12T08:55:23.708Z,3.00
2017-07-12T08:57:53.937Z,3.40
2017-07-12T09:00:23.335Z,3.10
2017-07-12T09:02:52.654Z,3.10
2017-07-12T09:05:22.329Z,2.80
2017-07-12T09:07:51.702Z,2.77
2017-07-12T09:10:21.245Z,3.10
2017-07-12T09:12:50.633Z,2.77
2017-07-12T09:15:19.932Z,3.50
2017-07-12T09:17:49.321Z,3.00
2017-07-12T09:20:18.801Z,3.10
2017-07-12T09:22:48.251Z,3.70
2017-07-12T09:35:14.396Z,4.27
2017-07-12T09:37:43.544Z,2.60
2017-07-12T09:40:13.128Z,3.60
2017-07-12T09:42:42.835Z,3.03
2017-07-12T09:45:12.262Z,3.07
2017-07-12T09:47:41.385Z,3.00
2017-07-12T09:50:10.683Z,3.10
2017-07-12T09:52:40.085Z,3.77
2017-07-12T09:55:10.343Z,3.50
2017-07-12T09:57:39.637Z,3.33
2017-07-12T10:00:08.663Z,2.83
2017-07-12T10:02:37.809Z,3.30
2017-07-12T10:05:07.090Z,3.17
2017-07-12T10:07:36.583Z,2.83
2017-07-12T10:10:05.881Z,3.23
2017-07-12T10:12:34.912Z,3.00
2017-07-12T10:15:04.259Z,3.00
2017-07-12T10:17:33.432Z,2.90
2017-07-12T10:20:02.656Z,3.17
2017-07-12T10:22:31.918Z,3.20
2017-07-12T10:25:01.142Z,2.73
2017-07-12T10:27:30.580Z,3.00
2017-07-12T10:29:59.981Z,3.57
2017-07-12T10:32:29.062Z,3.00
2017-07-12T10:34:58.509Z,3.20
2017-07-12T10:37:27.667Z,3.03
2017-07-12T10:39:57.074Z,3.30
2017-07-12T10:42:26.437Z,3.20
2017-07-12T10:44:56.724Z,3.20
2017-07-12T10:47:26.086Z,3.10
2017-07-12T10:49:55.111Z,3.27
2017-07-12T10:52:24.339Z,3.27
2017-07-12T10:54:53.991Z,3.67
2017-07-12T10:57:23.223Z,3.50
2017-07-12T10:59:52.393Z,3.43
2017-07-12T11:02:21.525Z,3.17
2017-07-12T11:04:50.803Z,3.30
2017-07-12T11:07:19.985Z,3.50
2017-07-12T11:09:49.179Z,3.50
2017-07-12T11:12:18.656Z,3.90
2017-07-12T11:14:47.846Z,3.40
2017-07-12T11:17:17.071Z,3.50
2017-07-12T11:19:46.157Z,4.27
2017-07-12T11:22:15.475Z,3.93
2017-07-12T11:24:44.635Z,3.50
2017-07-12T11:27:13.627Z,3.67
2017-07-12T11:29:43.010Z,3.50
2017-07-12T11:32:12.513Z,3.50
2017-07-12T11:34:41.674Z,3.50
2017-07-12T11:37:11.076Z,3.93
2017-07-12T11:39:40.206Z,3.83
2017-07-12T11:42:09.271Z,3.87
2017-07-12T11:44:38.685Z,3.83
2017-07-12T11:47:08.846Z,3.40
2017-07-12T11:49:38.075Z,3.93
2017-07-12T11:52:07.254Z,4.30
2017-07-12T11:54:36.520Z,4.30
2017-07-12T11:57:05.704Z,3.80
2017-07-12T11:59:35.068Z,3.90
2017-07-12T12:02:04.257Z,4.27
2017-07-12T12:04:33.537Z,4.40
2017-07-12T12:07:02.885Z,4.13
2017-07-12T12:09:32.019Z,3.83
2017-07-12T12:12:01.361Z,4.13
2017-07-12T12:14:30.776Z,4.60
2017-07-12T12:16:59.937Z,4.30
2017-07-12T12:19:29.259Z,4.40
2017-07-12T12:21:58.396Z,4.00
2017-07-12T12:24:27.761Z,3.83
2017-07-12T12:26:56.943Z,3.90
2017-07-12T12:29:26.463Z,4.17
2017-07-12T12:31:55.839Z,3.83
2017-07-12T12:34:25.335Z,4.77
2017-07-12T12:36:54.856Z,4.53
2017-07-12T12:39:24.259Z,4.13
2017-07-12T12:41:53.472Z,3.63
2017-07-12T12:44:22.644Z,4.50
2017-07-12T12:46:51.898Z,3.47
2017-07-12T12:49:22.366Z,4.17
2017-07-12T12:51:51.559Z,3.97
2017-07-12T12:54:21.571Z,4.63
2017-07-12T12:56:50.914Z,4.57
2017-07-12T12:59:20.473Z,4.57
2017-07-12T13:01:49.680Z,4.60
2017-07-12T13:04:25.273Z,4.33
2017-07-12T13:06:54.585Z,5.03
2017-07-12T13:09:24.055Z,4.50
2017-07-12T13:11:53.425Z,5.07
2017-07-12T13:14:22.515Z,4.83
2017-07-12T13:16:51.893Z,4.90
2017-07-12T13:19:21.114Z,4.80
2017-07-12T13:21:50.358Z,4.97
2017-07-12T13:24:19.647Z,4.53
2017-07-12T13:26:49.192Z,4.70
2017-07-12T13:29:18.284Z,4.30
2017-07-12T13:31:47.349Z,5.40
2017-07-12T13:34:16.554Z,5.03
2017-07-12T13:36:46.116Z,4.40
2017-07-12T13:39:15.296Z,4.97
2017-07-12T13:41:44.780Z,5.13
2017-07-12T13:44:14.119Z,4.17
2017-07-12T13:46:44.908Z,5.20
2017-07-12T13:49:14.500Z,4.60
2017-07-12T13:51:45.520Z,5.00
2017-07-12T13:54:14.550Z,4.50
2017-07-12T13:56:43.807Z,5.00
2017-07-12T13:59:13.456Z,4.30
2017-07-12T14:01:43.044Z,5.40
2017-07-12T14:04:12.574Z,4.90
2017-07-12T14:06:42.074Z,4.27
2017-07-12T14:09:11.460Z,4.90
2017-07-12T14:11:41.477Z,4.83
2017-07-12T14:14:13.877Z,5.03
2017-07-12T14:16:44.068Z,5.17
2017-07-12T14:19:14.013Z,4.70
2017-07-12T14:21:44.122Z,5.00
2017-07-12T14:24:14.326Z,4.40
2017-07-12T14:26:44.366Z,5.83
2017-07-12T14:29:14.474Z,4.53
2017-07-12T14:31:43.884Z,5.10
2017-07-12T14:34:13.316Z,4.23
2017-07-12T14:36:42.798Z,4.60
2017-07-12T14:39:12.124Z,5.00
2017-07-12T14:41:41.544Z,5.37
2017-07-12T14:44:11.291Z,3.80
2017-07-12T14:46:40.453Z,4.30
2017-07-12T14:49:09.839Z,4.70
2017-07-12T14:51:39.263Z,4.80
2017-07-12T14:54:09.554Z,4.17
2017-07-12T14:56:38.825Z,4.37
2017-07-12T14:59:08.340Z,4.50
2017-07-12T15:01:37.504Z,4.43
2017-07-12T15:04:06.840Z,4.93
2017-07-12T15:06:36.178Z,3.40
2017-07-12T15:09:05.938Z,4.10
2017-07-12T15:11:34.939Z,4.00
2017-07-12T15:14:04.219Z,3.53
2017-07-12T15:16:33.515Z,3.57
2017-07-12T15:19:02.407Z,3.27
2017-07-12T15:21:31.564Z,3.10
2017-07-12T15:24:01.184Z,3.30
2017-07-12T15:26:30.640Z,2.17
2017-07-12T15:28:59.819Z,2.87
2017-07-12T15:31:29.415Z,2.70
2017-07-12T15:33:58.639Z,3.20
2017-07-12T15:36:28.033Z,1.97
2017-07-12T15:38:57.340Z,2.40
2017-07-12T15:41:26.700Z,2.90
2017-07-12T15:43:55.871Z,3.00
2017-07-12T15:46:25.121Z,2.30
2017-07-12T15:48:54.163Z,3.20
2017-07-12T15:51:23.578Z,2.57
2017-07-12T15:53:53.014Z,2.00
2017-07-12T15:56:23.290Z,2.00
2017-07-12T15:58:52.775Z,3.00
2017-07-12T16:01:22.022Z,2.07
2017-07-12T16:03:51.261Z,2.20
2017-07-12T16:06:20.670Z,2.03
2017-07-12T16:08:50.763Z,2.67
2017-07-12T16:11:20.350Z,3.20
2017-07-12T16:13:49.601Z,2.70
2017-07-12T16:16:19.092Z,2.67
2017-07-12T16:18:49.003Z,3.03
2017-07-12T16:21:19.504Z,2.70
2017-07-12T16:23:48.773Z,1.53
2017-07-12T16:26:18.234Z,2.60
2017-07-12T16:28:47.580Z,2.23
2017-07-12T16:31:17.091Z,2.50
2017-07-12T16:33:46.424Z,1.90
2017-07-12T16:36:15.652Z,2.23
2017-07-12T16:38:45.484Z,2.70
2017-07-12T16:41:14.932Z,2.07
2017-07-12T16:43:44.279Z,2.27
2017-07-12T16:46:13.660Z,2.20
2017-07-12T16:48:42.907Z,2.80
2017-07-12T16:51:12.482Z,2.73
2017-07-12T16:53:41.728Z,2.73
2017-07-12T16:56:10.943Z,1.83
2017-07-12T16:58:41.880Z,2.00
2017-07-12T17:01:11.206Z,1.83
2017-07-12T17:03:40.314Z,2.27
2017-07-12T17:06:09.582Z,3.07
2017-07-12T17:08:39.014Z,2.63
2017-07-12T17:11:09.002Z,2.10
2017-07-12T17:13:38.324Z,2.50
2017-07-12T17:16:07.471Z,2.33
2017-07-12T17:18:36.648Z,2.80
2017-07-12T17:21:06.105Z,2.17
2017-07-12T17:23:35.361Z,2.87
2017-07-12T17:26:04.556Z,3.40
2017-07-12T17:28:33.985Z,2.23
2017-07-12T17:31:03.461Z,2.80
2017-07-12T17:33:32.952Z,2.57
2017-07-12T17:36:05.762Z,3.40
2017-07-12T17:38:35.775Z,2.40
2017-07-12T17:41:05.053Z,2.50
2017-07-12T17:43:34.478Z,2.93
2017-07-12T17:46:04.746Z,2.90
2017-07-12T17:48:34.547Z,2.57
2017-07-12T17:51:04.014Z,3.20
2017-07-12T17:53:33.523Z,2.07
2017-07-12T17:56:03.635Z,2.57
2017-07-12T17:58:33.574Z,3.10
2017-07-12T18:01:03.998Z,3.43
2017-07-12T18:03:33.150Z,3.10
2017-07-12T18:06:03.376Z,2.50
2017-07-12T18:08:32.800Z,3.57
2017-07-12T18:11:02.313Z,2.87
2017-07-12T18:13:31.729Z,2.40
2017-07-12T18:16:01.113Z,2.73
2017-07-12T18:18:30.756Z,4.17
2017-07-12T18:21:00.355Z,2.60
2017-07-12T18:23:29.991Z,2.50
2017-07-12T18:26:00.156Z,2.50
2017-07-12T18:28:29.574Z,3.40
2017-07-12T18:30:58.662Z,2.60
2017-07-12T18:33:27.969Z,2.77
2017-07-12T18:35:57.533Z,2.90
2017-07-12T18:38:26.444Z,2.90
2017-07-12T18:40:56.218Z,2.73
2017-07-12T18:43:25.626Z,3.00
2017-07-12T18:45:55.021Z,2.53
2017-07-12T18:48:24.431Z,3.53
2017-07-12T18:50:53.520Z,2.97
2017-07-12T18:53:22.757Z,2.70
2017-07-12T18:55:52.076Z,2.87
2017-07-12T18:58:21.403Z,3.00
2017-07-12T19:00:50.724Z,2.80
2017-07-12T19:03:21.114Z,2.47
2017-07-12T19:05:50.223Z,3.10
2017-07-12T19:08:20.196Z,2.90
2017-07-12T19:10:50.260Z,2.50
2017-07-12T19:13:19.543Z,2.27
2017-07-12T19:15:48.791Z,2.93
2017-07-12T19:18:17.540Z,2.30
2017-07-12T19:20:46.259Z,3.13
2017-07-12T19:23:15.501Z,2.60
2017-07-12T19:25:44.727Z,2.30
2017-07-12T19:28:13.810Z,2.30
2017-07-12T19:30:42.893Z,2.30
2017-07-12T19:33:12.517Z,2.83
2017-07-12T19:35:41.953Z,2.70
2017-07-12T19:38:11.030Z,2.53
2017-07-12T19:40:40.505Z,2.97
2017-07-12T19:43:09.614Z,2.50
2017-07-12T19:45:39.125Z,3.00
2017-07-12T19:48:08.320Z,2.53
2017-07-12T19:50:37.557Z,2.60
2017-07-12T19:53:06.803Z,3.00
2017-07-12T19:55:36.221Z,2.30
2017-07-12T19:58:05.557Z,2.47
2017-07-12T20:00:34.800Z,3.13
2017-07-12T20:03:04.141Z,2.30
2017-07-12T20:05:34.196Z,2.10
2017-07-12T20:08:03.784Z,2.50
2017-07-12T20:10:32.754Z,2.47
2017-07-12T20:13:01.943Z,3.03
2017-07-12T20:15:31.516Z,2.70
2017-07-12T20:18:00.729Z,2.20
2017-07-12T20:20:29.961Z,2.77
2017-07-12T20:22:59.121Z,2.70
2017-07-12T20:25:28.570Z,2.33
2017-07-12T20:27:57.719Z,2.30
2017-07-12T20:30:27.028Z,2.30
2017-07-12T20:32:56.484Z,2.43
2017-07-12T20:35:25.498Z,2.53
2017-07-12T20:37:54.918Z,2.33
2017-07-12T20:40:24.583Z,2.33
2017-07-12T20:42:53.912Z,1.93
2017-07-12T20:45:23.959Z,2.20
2017-07-12T20:47:53.112Z,2.50
2017-07-12T20:50:22.250Z,2.00
2017-07-12T20:52:52.039Z,2.20
2017-07-12T20:55:21.270Z,2.00
2017-07-12T20:57:50.578Z,2.03
2017-07-12T21:00:19.928Z,1.73
2017-07-12T21:02:50.122Z,1.70
2017-07-12T21:05:19.350Z,1.93
2017-07-12T21:07:57.441Z,1.80
2017-07-12T21:10:26.710Z,2.10
2017-07-12T21:12:55.935Z,2.03
2017-07-12T21:15:25.353Z,2.83
2017-07-12T21:17:54.433Z,1.73
2017-07-12T21:20:23.182Z,2.10
2017-07-12T21:22:52.485Z,1.80
2017-07-12T21:25:21.920Z,1.70
2017-07-12T21:27:50.945Z,3.20
2017-07-12T21:30:20.106Z,2.60
2017-07-12T21:32:49.084Z,2.07
2017-07-12T21:35:18.416Z,1.90
2017-07-12T21:37:47.623Z,2.23
2017-07-12T21:40:16.994Z,1.50
2017-07-12T21:42:46.397Z,1.70
2017-07-12T21:45:15.647Z,1.63
2017-07-12T21:47:45.998Z,1.80
2017-07-12T21:50:15.228Z,1.63
2017-07-12T21:52:44.551Z,1.60
2017-07-12T21:55:30.987Z,1.90
2017-07-12T21:58:17.988Z,1.80
2017-07-12T22:01:04.109Z,2.03
2017-07-12T22:03:50.607Z,1.80
2017-07-12T22:06:36.892Z,2.20
2017-07-12T22:09:25.645Z,2.00
2017-07-12T22:12:12.797Z,2.30
2017-07-12T22:14:58.957Z,2.70
2017-07-12T22:17:45.775Z,2.80
2017-07-12T22:20:32.916Z,2.50
2017-07-12T22:23:18.534Z,2.17
2017-07-12T22:26:04.518Z,2.03
2017-07-12T22:28:50.680Z,2.20
2017-07-12T22:31:36.975Z,2.30
2017-07-12T22:34:22.724Z,3.00
2017-07-12T22:37:06.369Z,3.10
2017-07-12T22:39:41.275Z,2.93
2017-07-12T22:42:15.935Z,2.60
2017-07-12T22:44:45.238Z,3.37
2017-07-12T22:47:14.718Z,3.33
2017-07-12T22:49:43.444Z,2.90
2017-07-12T22:52:13.057Z,2.63
2017-07-12T22:54:42.324Z,3.03
2017-07-12T22:57:11.768Z,3.60
2017-07-12T22:59:41.158Z,2.53
2017-07-12T23:02:11.287Z,2.97
2017-07-12T23:04:40.696Z,2.67
2017-07-12T23:07:09.791Z,3.50
2017-07-12T23:09:40.840Z,3.10
2017-07-12T23:12:09.961Z,2.80
2017-07-12T23:14:39.193Z,3.13
2017-07-12T23:17:08.552Z,3.00
2017-07-12T23:19:37.874Z,2.93
2017-07-12T23:22:07.278Z,3.00
2017-07-12T23:24:36.585Z,2.70
2017-07-12T23:27:05.941Z,3.23
2017-07-12T23:29:35.177Z,2.80
2017-07-12T23:32:03.941Z,2.90
2017-07-12T23:34:32.619Z,2.53
2017-07-12T23:37:01.350Z,2.60
2017-07-12T23:39:30.613Z,2.40
2017-07-12T23:41:59.773Z,2.37
2017-07-12T23:44:29.130Z,2.23
2017-07-12T23:46:58.622Z,2.60
2017-07-12T23:49:27.821Z,2.67
2017-07-12T23:51:57.015Z,2.60
2017-07-12T23:54:25.851Z,2.53
2017-07-12T23:56:54.519Z,2.50
2017-07-12T23:59:23.596Z,2.57
